createdAt,value
2022-09-04T00:00:11.503Z,98.10
2022-09-04T00:03:01.502Z,98.70
2022-09-04T00:05:36.823Z,98.80
2022-09-04T00:08:27.606Z,99.20
2022-09-04T00:11:08.751Z,99.50
2022-09-04T00:13:39.822Z,99.90
2022-09-04T00:16:24.678Z,99.90
2022-09-04T00:19:02.874Z,99.80
2022-09-04T00:21:41.046Z,99.90
2022-09-04T00:24:25.831Z,99.90
2022-09-04T00:27:17.106Z,99.90
2022-09-04T00:30:07.398Z,99.90
2022-09-04T00:33:11.777Z,99.90
2022-09-04T00:35:44.748Z,99.90
2022-09-04T00:38:16.628Z,99.90
2022-09-04T00:41:15.362Z,99.90
2022-09-04T00:44:19.834Z,99.90
2022-09-04T00:47:15.709Z,99.90
2022-09-04T00:50:12.249Z,99.90
2022-09-04T00:52:57.412Z,99.90
2022-09-04T00:55:45.511Z,99.90
2022-09-04T00:58:36.761Z,99.90
2022-09-04T01:01:04.098Z,99.90
2022-09-04T01:03:49.534Z,99.90
2022-09-04T01:06:22.279Z,99.90
2022-09-04T01:09:25.027Z,99.90
2022-09-04T01:12:14.780Z,99.90
2022-09-04T01:15:14.317Z,99.90
2022-09-04T01:17:55.135Z,99.90
2022-09-04T01:20:21.738Z,99.90
2022-09-04T01:23:06.957Z,99.90
2022-09-04T01:26:01.088Z,99.90
2022-09-04T01:29:02.411Z,99.90
2022-09-04T01:31:38.011Z,99.90
2022-09-04T01:34:32.249Z,99.90
2022-09-04T01:37:28.855Z,99.90
2022-09-04T01:40:22.998Z,99.90
2022-09-04T01:43:13.698Z,99.90
2022-09-04T01:46:22.190Z,99.90
2022-09-04T01:49:09.890Z,99.90
2022-09-04T01:51:39.731Z,99.90
2022-09-04T01:54:37.742Z,99.90
2022-09-04T01:57:15.622Z,99.90
2022-09-04T01:59:53.815Z,99.90
2022-09-04T02:02:52.056Z,99.90
2022-09-04T02:05:53.710Z,99.90
2022-09-04T02:08:21.244Z,99.90
2022-09-04T02:11:02.574Z,99.90
2022-09-04T02:14:02.212Z,99.90
2022-09-04T02:16:43.640Z,99.90
2022-09-04T02:19:37.521Z,99.90
2022-09-04T02:22:26.380Z,99.90
2022-09-04T02:24:59.454Z,99.90
2022-09-04T02:27:39.752Z,99.90
2022-09-04T02:30:10.381Z,99.90
2022-09-04T02:33:11.886Z,99.90
2022-09-04T02:35:50.792Z,99.90
2022-09-04T02:38:17.382Z,99.90
2022-09-04T02:40:51.692Z,99.90
2022-09-04T02:43:25.799Z,99.90
2022-09-04T02:46:13.805Z,99.90
2022-09-04T02:49:14.976Z,99.90
2022-09-04T02:51:54.847Z,99.90
2022-09-04T02:54:39.258Z,99.90
2022-09-04T02:57:33.398Z,99.90
2022-09-04T03:00:21.261Z,99.90
2022-09-04T03:03:06.865Z,99.90
2022-09-04T03:06:06.066Z,99.90
2022-09-04T03:08:39.155Z,99.90
2022-09-04T03:11:21.818Z,99.90
2022-09-04T03:14:12.099Z,99.90
2022-09-04T03:16:49.669Z,99.90
2022-09-04T03:19:43.640Z,99.90
2022-09-04T03:22:12.424Z,99.90
2022-09-04T03:25:01.030Z,99.90
2022-09-04T03:27:30.416Z,99.90
2022-09-04T03:30:10.950Z,99.90
2022-09-04T03:33:09.382Z,99.90
2022-09-04T03:35:44.629Z,99.90
2022-09-04T03:38:22.892Z,99.90
2022-09-04T03:41:07.596Z,99.90
2022-09-04T03:43:46.625Z,99.90
2022-09-04T03:46:26.044Z,99.90
2022-09-04T03:49:20.920Z,99.90
2022-09-04T03:52:16.036Z,99.90
2022-09-04T03:55:07.626Z,99.90
2022-09-04T03:57:52.412Z,99.90
2022-09-04T04:00:21.479Z,99.90
2022-09-04T04:03:07.359Z,99.90
2022-09-04T04:05:42.062Z,99.90
2022-09-04T04:08:46.240Z,99.90
2022-09-04T04:11:31.481Z,99.90
2022-09-04T04:14:20.305Z,99.90
2022-09-04T04:16:48.016Z,99.90
2022-09-04T04:19:27.668Z,99.90
2022-09-04T04:22:24.188Z,99.90
2022-09-04T04:25:02.926Z,99.90
2022-09-04T04:27:54.044Z,99.90
2022-09-04T04:30:20.959Z,99.90
2022-09-04T04:33:05.690Z,99.90
2022-09-04T04:35:48.154Z,99.90
2022-09-04T04:38:20.679Z,99.90
2022-09-04T04:41:00.000Z,99.90
2022-09-04T04:43:34.678Z,99.90
2022-09-04T04:46:04.071Z,99.90
2022-09-04T04:49:04.257Z,99.90
2022-09-04T04:51:49.823Z,99.90
2022-09-04T04:54:45.982Z,99.90
2022-09-04T04:57:32.518Z,99.90
2022-09-04T05:00:23.961Z,99.90
2022-09-04T05:03:01.290Z,99.90
2022-09-04T05:05:50.674Z,99.90
2022-09-04T05:08:42.526Z,99.90
2022-09-04T05:11:34.967Z,99.90
2022-09-04T05:14:22.723Z,99.90
2022-09-04T05:17:15.615Z,99.90
2022-09-04T05:20:16.394Z,99.90
2022-09-04T05:23:11.646Z,99.90
2022-09-04T05:26:10.583Z,99.90
2022-09-04T05:28:40.063Z,99.90
2022-09-04T05:31:09.602Z,99.90
2022-09-04T05:33:41.735Z,99.90
2022-09-04T05:36:18.639Z,99.90
2022-09-04T05:39:16.393Z,99.90
2022-09-04T05:41:48.839Z,99.90
2022-09-04T05:44:18.422Z,99.90
2022-09-04T05:47:09.346Z,99.90
2022-09-04T05:50:02.285Z,99.90
2022-09-04T05:53:06.710Z,99.90
2022-09-04T05:55:48.470Z,99.90
2022-09-04T05:58:25.815Z,99.90
2022-09-04T06:01:14.306Z,99.90
2022-09-04T06:04:18.874Z,99.90
2022-09-04T06:07:27.535Z,99.90
2022-09-04T06:09:54.232Z,99.90
2022-09-04T06:12:47.457Z,99.90
2022-09-04T06:15:59.088Z,99.90
2022-09-04T06:18:28.514Z,99.90
2022-09-04T06:21:12.195Z,99.90
2022-09-04T06:23:48.029Z,99.90
2022-09-04T06:26:53.325Z,99.90
2022-09-04T06:29:28.605Z,99.90
2022-09-04T06:32:13.708Z,99.90
2022-09-04T06:34:59.965Z,99.90
2022-09-04T06:38:07.015Z,99.90
2022-09-04T06:40:39.771Z,99.90
2022-09-04T06:43:32.111Z,99.90
2022-09-04T06:46:40.080Z,99.90
2022-09-04T06:49:21.881Z,99.90
2022-09-04T06:51:57.489Z,99.90
2022-09-04T06:54:36.096Z,99.90
2022-09-04T06:57:17.860Z,99.90
2022-09-04T07:00:03.266Z,99.90
2022-09-04T07:03:07.763Z,99.90
2022-09-04T07:05:57.659Z,99.90
2022-09-04T07:08:33.497Z,99.90
2022-09-04T07:11:02.941Z,99.90
2022-09-04T07:13:47.909Z,99.90
2022-09-04T07:16:35.648Z,99.90
2022-09-04T07:19:11.518Z,99.90
2022-09-04T07:22:05.007Z,99.90
2022-09-04T07:25:04.146Z,99.90
2022-09-04T07:27:48.623Z,99.90
2022-09-04T07:30:17.364Z,99.90
2022-09-04T07:32:59.549Z,99.90
2022-09-04T07:35:45.519Z,99.90
2022-09-04T07:38:52.099Z,99.90
2022-09-04T07:41:24.722Z,99.90
2022-09-04T07:44:03.832Z,99.90
2022-09-04T07:46:44.660Z,99.90
2022-09-04T07:49:17.008Z,99.90
2022-09-04T07:51:54.482Z,99.90
2022-09-04T07:54:49.834Z,99.90
2022-09-04T07:57:48.977Z,99.90
2022-09-04T08:00:23.231Z,99.90
2022-09-04T08:03:17.541Z,99.90
2022-09-04T08:05:53.196Z,99.90
2022-09-04T08:08:38.395Z,99.90
2022-09-04T08:11:48.927Z,99.90
2022-09-04T08:14:25.669Z,99.90
2022-09-04T08:17:25.365Z,99.90
2022-09-04T08:20:04.490Z,99.90
2022-09-04T08:22:52.296Z,99.90
2022-09-04T08:25:49.617Z,99.90
2022-09-04T08:28:33.226Z,99.90
2022-09-04T08:31:15.044Z,99.90
2022-09-04T08:33:51.162Z,99.90
2022-09-04T08:36:29.130Z,99.90
2022-09-04T08:39:13.932Z,99.90
2022-09-04T08:42:10.331Z,99.90
2022-09-04T08:45:00.071Z,99.90
2022-09-04T08:47:40.212Z,99.90
2022-09-04T08:50:31.535Z,99.90
2022-09-04T08:53:35.971Z,99.90
2022-09-04T08:56:26.335Z,99.90
2022-09-04T08:59:13.880Z,99.90
2022-09-04T09:02:18.286Z,99.90
2022-09-04T09:05:23.095Z,99.90
2022-09-04T09:08:10.961Z,99.90
2022-09-04T09:10:52.659Z,99.90
2022-09-04T09:13:47.083Z,99.80
2022-09-04T09:16:19.336Z,99.50
2022-09-04T09:18:58.263Z,99.50
2022-09-04T09:21:27.857Z,99.60
2022-09-04T09:24:28.325Z,99.10
2022-09-04T09:27:22.606Z,99.10
2022-09-04T09:30:17.535Z,98.90
2022-09-04T09:33:17.740Z,99.40
2022-09-04T09:35:55.815Z,98.40
2022-09-04T09:38:22.441Z,98.50
2022-09-04T09:41:05.157Z,98.30
2022-09-04T09:43:47.699Z,98.50
2022-09-04T09:46:42.177Z,98.40
2022-09-04T09:49:36.888Z,99.10
2022-09-04T09:52:42.627Z,98.70
2022-09-04T09:55:40.199Z,98.00
2022-09-04T09:58:19.107Z,97.80
2022-09-04T10:01:08.270Z,97.40
2022-09-04T10:04:12.818Z,97.10
2022-09-04T10:07:19.928Z,97.40
2022-09-04T10:10:05.299Z,97.20
2022-09-04T10:12:44.532Z,97.10
2022-09-04T10:15:29.168Z,97.40
2022-09-04T10:18:09.241Z,96.90
2022-09-04T10:21:19.047Z,96.60
2022-09-04T10:24:10.537Z,96.50
2022-09-04T10:26:55.898Z,96.50
2022-09-04T10:29:45.164Z,96.50
2022-09-04T10:32:50.498Z,96.60
2022-09-04T10:35:21.835Z,96.30
2022-09-04T10:37:57.386Z,96.70
2022-09-04T10:41:08.982Z,96.00
2022-09-04T10:43:47.403Z,95.60
2022-09-04T10:46:56.050Z,95.50
2022-09-04T10:50:03.843Z,95.10
2022-09-04T10:53:01.079Z,94.90
2022-09-04T10:55:46.913Z,95.00
2022-09-04T10:58:36.096Z,94.80
2022-09-04T11:01:32.229Z,94.00
2022-09-04T11:04:28.664Z,94.70
2022-09-04T11:07:17.576Z,94.80
2022-09-04T11:09:57.001Z,94.40
2022-09-04T11:12:26.432Z,94.80
2022-09-04T11:15:26.502Z,94.20
2022-09-04T11:18:33.310Z,93.70
2022-09-04T11:21:14.863Z,94.20
2022-09-04T11:24:05.098Z,93.30
2022-09-04T11:26:39.183Z,93.50
2022-09-04T11:29:43.671Z,93.10
2022-09-04T11:32:32.550Z,92.80
2022-09-04T11:35:41.205Z,92.80
2022-09-04T11:38:43.715Z,92.00
2022-09-04T11:41:45.153Z,92.00
2022-09-04T11:44:40.928Z,91.40
2022-09-04T11:47:26.515Z,91.50
2022-09-04T11:50:14.467Z,91.90
2022-09-04T11:52:55.585Z,90.90
2022-09-04T11:55:35.354Z,90.80
2022-09-04T11:58:08.169Z,90.50
2022-09-04T12:01:30.073Z,90.50
2022-09-04T12:04:05.681Z,90.10
2022-09-04T12:06:59.943Z,90.50
2022-09-04T12:09:44.102Z,90.30
2022-09-04T12:12:22.463Z,89.00
2022-09-04T12:14:58.222Z,89.00
2022-09-04T12:17:56.373Z,88.20
2022-09-04T12:20:36.710Z,86.40
2022-09-04T12:23:26.360Z,87.90
2022-09-04T12:26:01.276Z,85.40
2022-09-04T12:28:34.773Z,86.30
2022-09-04T12:31:30.853Z,85.60
2022-09-04T12:34:11.292Z,84.30
2022-09-04T12:36:46.990Z,84.70
2022-09-04T12:39:42.890Z,84.20
2022-09-04T12:42:31.145Z,83.90
2022-09-04T12:45:31.341Z,82.80
2022-09-04T12:48:11.083Z,82.50
2022-09-04T12:50:54.414Z,81.60
2022-09-04T12:53:49.304Z,82.90
2022-09-04T12:56:42.143Z,81.60
2022-09-04T12:59:17.926Z,81.90
2022-09-04T13:02:07.246Z,80.80
2022-09-04T13:04:38.668Z,79.80
2022-09-04T13:07:22.778Z,79.50
2022-09-04T13:10:16.615Z,80.40
2022-09-04T13:12:49.147Z,80.20
2022-09-04T13:15:53.726Z,80.30
2022-09-04T13:18:34.672Z,80.00
2022-09-04T13:21:34.509Z,80.40
2022-09-04T13:24:26.579Z,79.60
2022-09-04T13:27:07.667Z,79.70
2022-09-04T13:30:05.520Z,80.10
2022-09-04T13:32:59.603Z,80.80
2022-09-04T13:35:44.561Z,79.10
2022-09-04T13:38:50.186Z,78.70
2022-09-04T13:41:33.087Z,79.50
2022-09-04T13:44:20.943Z,80.30
2022-09-04T13:46:59.591Z,78.90
2022-09-04T13:49:49.467Z,77.30
2022-09-04T13:52:24.247Z,76.50
2022-09-04T13:55:02.838Z,76.90
2022-09-04T13:57:36.227Z,76.70
2022-09-04T14:00:07.512Z,75.20
2022-09-04T14:02:36.711Z,76.70
2022-09-04T14:05:15.246Z,77.00
2022-09-04T14:07:46.226Z,76.10
2022-09-04T14:10:20.267Z,75.80
2022-09-04T14:13:19.139Z,78.00
2022-09-04T14:16:03.739Z,76.50
2022-09-04T14:18:45.624Z,77.00
2022-09-04T14:21:18.502Z,76.20
2022-09-04T14:23:57.132Z,77.60
2022-09-04T14:26:59.156Z,77.30
2022-09-04T14:29:36.062Z,74.40
2022-09-04T14:32:33.693Z,75.90
2022-09-04T14:35:10.299Z,74.90
2022-09-04T14:37:48.150Z,74.90
2022-09-04T14:40:26.816Z,75.40
2022-09-04T14:43:16.997Z,75.70
2022-09-04T14:46:04.593Z,74.60
2022-09-04T14:48:40.354Z,75.50
2022-09-04T14:51:39.377Z,74.60
2022-09-04T14:54:09.107Z,75.40
2022-09-04T14:56:49.070Z,74.60
2022-09-04T14:59:26.510Z,77.10
2022-09-04T15:02:05.252Z,78.00
2022-09-04T15:04:46.261Z,78.70
2022-09-04T15:07:25.021Z,76.40
2022-09-04T15:09:52.210Z,79.90
2022-09-04T15:12:36.306Z,78.40
2022-09-04T15:15:07.121Z,77.90
2022-09-04T15:17:39.167Z,77.70
2022-09-04T15:20:16.950Z,78.00
2022-09-04T15:23:02.230Z,79.00
2022-09-04T15:25:57.597Z,78.80
2022-09-04T15:29:05.089Z,79.60
2022-09-04T15:31:38.232Z,77.10
2022-09-04T15:34:08.610Z,78.00
2022-09-04T15:36:37.673Z,78.30
2022-09-04T15:39:13.758Z,78.60
2022-09-04T15:41:49.793Z,78.40
2022-09-04T15:44:47.399Z,78.40
2022-09-04T15:47:18.012Z,78.80
2022-09-04T15:50:04.818Z,78.70
2022-09-04T15:52:40.361Z,79.40
2022-09-04T15:55:27.511Z,78.70
2022-09-04T15:58:08.444Z,78.40
2022-09-04T16:00:56.367Z,79.90
2022-09-04T16:03:36.492Z,80.60
2022-09-04T16:06:09.501Z,78.90
2022-09-04T16:08:54.860Z,79.60
2022-09-04T16:11:28.724Z,79.30
2022-09-04T16:13:58.471Z,79.70
2022-09-04T16:16:45.198Z,79.00
2022-09-04T16:19:33.930Z,81.40
2022-09-04T16:22:09.567Z,80.60
2022-09-04T16:24:45.925Z,78.10
2022-09-04T16:27:18.520Z,78.60
2022-09-04T16:29:46.058Z,78.90
2022-09-04T16:32:23.238Z,79.00
2022-09-04T16:34:55.348Z,78.20
2022-09-04T16:37:27.145Z,78.80
2022-09-04T16:40:18.086Z,79.30
2022-09-04T16:42:55.707Z,77.30
2022-09-04T16:45:28.195Z,77.80
2022-09-04T16:48:21.936Z,79.40
2022-09-04T16:50:56.150Z,78.20
2022-09-04T16:53:29.071Z,75.00
2022-09-04T16:56:08.200Z,75.40
2022-09-04T16:58:42.472Z,75.20
2022-09-04T17:01:29.426Z,74.70
2022-09-04T17:04:20.886Z,76.40
2022-09-04T17:07:02.332Z,76.50
2022-09-04T17:09:56.518Z,77.10
2022-09-04T17:12:23.297Z,78.10
2022-09-04T17:14:55.973Z,81.10
2022-09-04T17:17:31.566Z,80.70
2022-09-04T17:20:45.355Z,82.00
2022-09-04T17:29:02.789Z,84.80
2022-09-04T17:29:08.422Z,84.50
2022-09-04T17:29:34.894Z,83.00
2022-09-04T17:32:26.290Z,84.60
2022-09-04T17:40:10.328Z,84.20
2022-09-04T17:40:48.439Z,85.80
2022-09-04T17:41:39.792Z,86.30
2022-09-04T17:44:02.752Z,86.20
2022-09-04T17:46:36.534Z,87.30
2022-09-04T17:49:17.516Z,87.10
2022-09-04T17:51:57.879Z,87.90
2022-09-04T17:54:37.378Z,88.60
2022-09-04T17:57:26.741Z,88.50
2022-09-04T17:59:58.240Z,89.40
2022-09-04T18:02:33.288Z,89.20
2022-09-04T18:05:20.617Z,89.60
2022-09-04T18:08:10.596Z,90.20
2022-09-04T18:10:52.235Z,90.20
2022-09-04T18:13:38.709Z,90.20
2022-09-04T18:16:14.430Z,90.30
2022-09-04T18:18:51.898Z,90.60
2022-09-04T18:22:25.090Z,91.60
2022-09-04T18:25:15.815Z,91.50
2022-09-04T18:28:07.539Z,91.50
2022-09-04T18:33:34.445Z,91.40
2022-09-04T18:37:24.738Z,91.40
2022-09-04T18:37:43.887Z,91.50
2022-09-04T18:41:43.346Z,91.60
2022-09-04T18:50:05.013Z,91.70
2022-09-04T18:50:43.934Z,92.10
2022-09-04T18:50:46.757Z,92.10
2022-09-04T18:51:58.641Z,92.40
2022-09-04T18:54:29.458Z,92.90
2022-09-04T18:57:06.752Z,92.90
2022-09-04T18:59:42.324Z,93.20
2022-09-04T19:02:42.155Z,93.30
2022-09-04T19:05:16.522Z,93.50
2022-09-04T19:07:49.022Z,93.60
2022-09-04T19:10:56.918Z,94.10
2022-09-04T19:13:38.493Z,93.90
2022-09-04T19:16:33.920Z,94.20
2022-09-04T19:19:17.319Z,94.20
2022-09-04T19:22:13.233Z,94.30
2022-09-04T19:24:52.200Z,94.40
2022-09-04T19:27:27.854Z,94.60
2022-09-04T19:30:03.430Z,94.80
2022-09-04T19:33:07.116Z,95.10
2022-09-04T19:35:45.499Z,95.00
2022-09-04T19:43:42.082Z,95.20
2022-09-04T19:46:04.569Z,95.60
2022-09-04T19:46:09.036Z,95.40
2022-09-04T19:47:51.947Z,95.60
2022-09-04T19:53:23.202Z,95.90
2022-09-04T19:53:42.713Z,96.10
2022-09-04T19:56:23.938Z,96.50
2022-09-04T19:58:57.200Z,96.90
2022-09-04T20:01:29.216Z,97.30
2022-09-04T20:04:18.946Z,97.10
2022-09-04T20:06:52.166Z,97.50
2022-09-04T20:09:31.137Z,98.00
2022-09-04T20:12:04.697Z,98.00
2022-09-04T20:14:40.538Z,98.20
2022-09-04T20:17:22.994Z,98.20
2022-09-04T20:19:56.056Z,98.40
2022-09-04T20:22:47.915Z,98.40
2022-09-04T20:25:46.889Z,98.80
2022-09-04T20:28:19.943Z,98.90
2022-09-04T20:31:30.307Z,98.90
2022-09-04T20:34:16.586Z,99.10
2022-09-04T20:36:49.625Z,99.10
2022-09-04T20:39:23.386Z,99.10
2022-09-04T20:41:59.397Z,99.20
2022-09-04T20:44:45.832Z,99.70
2022-09-04T20:52:46.283Z,99.50
2022-09-04T20:53:00.197Z,99.80
2022-09-04T20:54:28.435Z,99.90
2022-09-04T20:59:45.301Z,99.90
2022-09-04T21:03:12.997Z,99.90
2022-09-04T21:03:29.622Z,99.90
2022-09-04T21:06:27.738Z,99.90
2022-09-04T21:09:00.203Z,99.90
2022-09-04T21:11:40.586Z,99.90
2022-09-04T21:14:19.787Z,99.90
2022-09-04T21:17:35.289Z,99.90
2022-09-04T21:20:59.759Z,99.90
2022-09-04T21:23:46.442Z,99.90
2022-09-04T21:26:32.334Z,99.90
2022-09-04T21:29:10.858Z,99.90
2022-09-04T21:31:46.963Z,99.90
2022-09-04T21:34:45.709Z,99.90
2022-09-04T21:37:17.641Z,99.90
2022-09-04T21:40:50.761Z,99.90
2022-09-04T21:43:36.234Z,99.90
2022-09-04T21:46:08.958Z,99.90
2022-09-04T21:48:46.350Z,99.90
2022-09-04T21:51:29.386Z,99.90
2022-09-04T21:54:37.431Z,99.90
2022-09-04T22:02:25.506Z,99.90
2022-09-04T22:02:41.703Z,99.90
2022-09-04T22:04:13.288Z,99.90
2022-09-04T22:07:50.471Z,99.90
2022-09-04T22:13:32.944Z,99.90
2022-09-04T22:13:48.397Z,99.90
2022-09-04T22:16:42.205Z,99.90
2022-09-04T22:19:20.576Z,99.90
2022-09-04T22:22:03.413Z,99.90
2022-09-04T22:24:41.261Z,99.90
2022-09-04T22:27:37.618Z,99.90
2022-09-04T22:30:22.682Z,99.90
2022-09-04T22:33:07.429Z,99.90
2022-09-04T22:35:35.738Z,99.90
2022-09-04T22:38:40.758Z,99.90
2022-09-04T22:41:34.534Z,99.90
2022-09-04T22:44:35.215Z,99.90
2022-09-04T22:47:26.533Z,99.90
2022-09-04T22:50:14.555Z,99.90
2022-09-04T22:52:56.664Z,99.90
2022-09-04T22:56:08.421Z,99.90
2022-09-04T22:59:26.741Z,99.90
2022-09-04T23:03:04.077Z,99.90
2022-09-04T23:05:44.294Z,99.90
2022-09-04T23:13:53.291Z,99.90
2022-09-04T23:14:00.080Z,99.90
2022-09-04T23:15:11.133Z,99.90
2022-09-04T23:22:50.666Z,99.90
2022-09-04T23:26:45.850Z,99.90
2022-09-04T23:26:46.440Z,99.90
2022-09-04T23:28:27.453Z,99.90
2022-09-04T23:31:12.674Z,99.90
2022-09-04T23:34:09.965Z,99.90
2022-09-04T23:36:58.859Z,99.90
2022-09-04T23:39:34.250Z,99.90
2022-09-04T23:42:13.102Z,99.90
2022-09-04T23:45:01.431Z,99.90
2022-09-04T23:48:13.306Z,99.90
2022-09-04T23:50:45.728Z,99.90
2022-09-04T23:53:30.274Z,99.90
2022-09-04T23:56:26.635Z,99.90
2022-09-04T23:59:26.132Z,99.90
